sensor_id;sensor_type;location;lat;lon;timestamp;P1;durP1;ratioP1;P2;durP2;ratioP2
64252;SDS011;50592;52.958;-7.470;2023-10-31T00:00:50;33.78;;;13.65;;
64252;SDS011;50592;52.958;-7.470;2023-10-31T00:03:16;48.50;;;17.33;;
64252;SDS011;50592;52.958;-7.470;2023-10-31T00:05:41;61.67;;;18.67;;
64252;SDS011;50592;52.958;-7.470;2023-10-31T00:08:08;77.78;;;18.55;;
64252;SDS011;50592;52.958;-7.470;2023-10-31T00:10:34;39.88;;;17.55;;
64252;SDS011;50592;52.958;-7.470;2023-10-31T00:12:59;37.75;;;20.17;;
64252;SDS011;50592;52.958;-7.470;2023-10-31T00:15:25;32.17;;;17.95;;
64252;SDS011;50592;52.958;-7.470;2023-10-31T00:17:52;23.00;;;17.95;;
64252;SDS011;50592;52.958;-7.470;2023-10-31T00:20:17;19.88;;;13.30;;
64252;SDS011;50592;52.958;-7.470;2023-10-31T00:22:43;57.38;;;18.77;;
64252;SDS011;50592;52.958;-7.470;2023-10-31T00:25:09;40.58;;;16.70;;
64252;SDS011;50592;52.958;-7.470;2023-10-31T00:27:35;34.83;;;16.52;;
64252;SDS011;50592;52.958;-7.470;2023-10-31T00:30:01;61.33;;;19.70;;
64252;SDS011;50592;52.958;-7.470;2023-10-31T00:32:32;58.35;;;19.02;;
64252;SDS011;50592;52.958;-7.470;2023-10-31T00:34:57;71.38;;;21.33;;
64252;SDS011;50592;52.958;-7.470;2023-10-31T00:37:23;84.35;;;22.27;;
64252;SDS011;50592;52.958;-7.470;2023-10-31T00:39:49;68.47;;;18.88;;
64252;SDS011;50592;52.958;-7.470;2023-10-31T00:42:14;91.90;;;20.95;;
64252;SDS011;50592;52.958;-7.470;2023-10-31T00:44:40;102.80;;;22.20;;
64252;SDS011;50592;52.958;-7.470;2023-10-31T00:47:06;172.32;;;22.70;;
64252;SDS011;50592;52.958;-7.470;2023-10-31T00:49:32;129.10;;;23.10;;
64252;SDS011;50592;52.958;-7.470;2023-10-31T00:51:59;261.15;;;26.10;;
64252;SDS011;50592;52.958;-7.470;2023-10-31T00:54:25;140.77;;;24.88;;
64252;SDS011;50592;52.958;-7.470;2023-10-31T00:56:51;105.32;;;23.95;;
64252;SDS011;50592;52.958;-7.470;2023-10-31T00:59:17;51.53;;;20.63;;
64252;SDS011;50592;52.958;-7.470;2023-10-31T01:01:43;68.60;;;22.35;;
64252;SDS011;50592;52.958;-7.470;2023-10-31T01:04:09;92.30;;;23.02;;
64252;SDS011;50592;52.958;-7.470;2023-10-31T01:06:42;49.20;;;19.95;;
64252;SDS011;50592;52.958;-7.470;2023-10-31T01:09:11;92.93;;;24.38;;
64252;SDS011;50592;52.958;-7.470;2023-10-31T01:11:38;43.92;;;20.90;;
64252;SDS011;50592;52.958;-7.470;2023-10-31T01:14:04;58.83;;;22.52;;
64252;SDS011;50592;52.958;-7.470;2023-10-31T01:16:30;45.78;;;21.45;;
64252;SDS011;50592;52.958;-7.470;2023-10-31T01:18:55;37.35;;;18.05;;
64252;SDS011;50592;52.958;-7.470;2023-10-31T01:21:21;56.88;;;17.38;;
64252;SDS011;50592;52.958;-7.470;2023-10-31T01:23:47;69.43;;;17.55;;
64252;SDS011;50592;52.958;-7.470;2023-10-31T01:26:13;30.05;;;16.38;;
64252;SDS011;50592;52.958;-7.470;2023-10-31T01:28:39;65.65;;;15.60;;
64252;SDS011;50592;52.958;-7.470;2023-10-31T01:31:05;66.40;;;17.25;;
64252;SDS011;50592;52.958;-7.470;2023-10-31T01:33:31;29.45;;;14.27;;
64252;SDS011;50592;52.958;-7.470;2023-10-31T01:35:57;18.48;;;13.45;;
64252;SDS011;50592;52.958;-7.470;2023-10-31T01:38:23;39.40;;;14.25;;
64252;SDS011;50592;52.958;-7.470;2023-10-31T01:40:49;45.85;;;13.45;;
64252;SDS011;50592;52.958;-7.470;2023-10-31T01:43:28;23.77;;;12.70;;
64252;SDS011;50592;52.958;-7.470;2023-10-31T01:46:01;32.83;;;13.00;;
64252;SDS011;50592;52.958;-7.470;2023-10-31T01:48:27;33.42;;;12.15;;
64252;SDS011;50592;52.958;-7.470;2023-10-31T01:50:55;30.48;;;13.05;;
64252;SDS011;50592;52.958;-7.470;2023-10-31T01:53:24;27.70;;;12.57;;
64252;SDS011;50592;52.958;-7.470;2023-10-31T01:55:51;43.75;;;13.57;;
64252;SDS011;50592;52.958;-7.470;2023-10-31T01:58:19;63.83;;;14.18;;
64252;SDS011;50592;52.958;-7.470;2023-10-31T02:00:48;72.72;;;14.82;;
64252;SDS011;50592;52.958;-7.470;2023-10-31T02:03:17;51.88;;;13.48;;
64252;SDS011;50592;52.958;-7.470;2023-10-31T02:05:43;54.88;;;13.55;;
64252;SDS011;50592;52.958;-7.470;2023-10-31T02:08:09;81.97;;;14.48;;
64252;SDS011;50592;52.958;-7.470;2023-10-31T02:10:35;30.48;;;12.65;;
64252;SDS011;50592;52.958;-7.470;2023-10-31T02:13:14;28.42;;;12.00;;
64252;SDS011;50592;52.958;-7.470;2023-10-31T02:15:41;38.08;;;12.23;;
64252;SDS011;50592;52.958;-7.470;2023-10-31T02:18:07;19.33;;;10.45;;
64252;SDS011;50592;52.958;-7.470;2023-10-31T02:20:34;11.93;;;9.95;;
64252;SDS011;50592;52.958;-7.470;2023-10-31T02:23:00;33.63;;;12.27;;
64252;SDS011;50592;52.958;-7.470;2023-10-31T02:25:26;29.92;;;11.10;;
64252;SDS011;50592;52.958;-7.470;2023-10-31T02:27:52;18.73;;;10.25;;
64252;SDS011;50592;52.958;-7.470;2023-10-31T02:30:19;32.38;;;10.82;;
64252;SDS011;50592;52.958;-7.470;2023-10-31T02:32:45;27.75;;;10.75;;
64252;SDS011;50592;52.958;-7.470;2023-10-31T02:35:11;23.45;;;10.98;;
64252;SDS011;50592;52.958;-7.470;2023-10-31T02:37:37;24.08;;;10.90;;
64252;SDS011;50592;52.958;-7.470;2023-10-31T02:40:03;29.30;;;9.77;;
64252;SDS011;50592;52.958;-7.470;2023-10-31T02:42:29;16.60;;;9.95;;
64252;SDS011;50592;52.958;-7.470;2023-10-31T02:44:56;20.60;;;9.88;;
64252;SDS011;50592;52.958;-7.470;2023-10-31T02:47:21;40.40;;;10.55;;
64252;SDS011;50592;52.958;-7.470;2023-10-31T02:49:47;19.02;;;9.90;;
64252;SDS011;50592;52.958;-7.470;2023-10-31T02:52:13;15.95;;;10.40;;
64252;SDS011;50592;52.958;-7.470;2023-10-31T02:54:39;32.13;;;10.52;;
64252;SDS011;50592;52.958;-7.470;2023-10-31T02:57:05;39.50;;;10.95;;
64252;SDS011;50592;52.958;-7.470;2023-10-31T02:59:31;35.80;;;10.98;;
64252;SDS011;50592;52.958;-7.470;2023-10-31T03:01:56;26.35;;;10.90;;
64252;SDS011;50592;52.958;-7.470;2023-10-31T03:04:23;32.83;;;11.05;;
64252;SDS011;50592;52.958;-7.470;2023-10-31T03:06:49;28.83;;;11.43;;
64252;SDS011;50592;52.958;-7.470;2023-10-31T03:09:15;23.80;;;11.23;;
64252;SDS011;50592;52.958;-7.470;2023-10-31T03:11:41;29.40;;;10.40;;
64252;SDS011;50592;52.958;-7.470;2023-10-31T03:14:07;27.00;;;10.45;;
64252;SDS011;50592;52.958;-7.470;2023-10-31T03:16:33;34.58;;;11.50;;
64252;SDS011;50592;52.958;-7.470;2023-10-31T03:18:58;15.13;;;10.25;;
64252;SDS011;50592;52.958;-7.470;2023-10-31T03:21:24;19.45;;;9.45;;
64252;SDS011;50592;52.958;-7.470;2023-10-31T03:23:50;16.50;;;8.90;;
64252;SDS011;50592;52.958;-7.470;2023-10-31T03:26:18;33.92;;;8.85;;
64252;SDS011;50592;52.958;-7.470;2023-10-31T03:28:45;80.85;;;9.60;;
64252;SDS011;50592;52.958;-7.470;2023-10-31T03:31:14;23.83;;;8.65;;
64252;SDS011;50592;52.958;-7.470;2023-10-31T03:33:40;27.40;;;8.20;;
64252;SDS011;50592;52.958;-7.470;2023-10-31T03:36:07;32.78;;;7.40;;
64252;SDS011;50592;52.958;-7.470;2023-10-31T03:38:34;64.75;;;8.20;;
64252;SDS011;50592;52.958;-7.470;2023-10-31T03:41:00;60.53;;;7.35;;
64252;SDS011;50592;52.958;-7.470;2023-10-31T03:43:26;87.97;;;7.35;;
64252;SDS011;50592;52.958;-7.470;2023-10-31T03:45:52;46.72;;;6.88;;
64252;SDS011;50592;52.958;-7.470;2023-10-31T03:48:18;70.07;;;7.55;;
64252;SDS011;50592;52.958;-7.470;2023-10-31T03:50:43;84.93;;;7.57;;
64252;SDS011;50592;52.958;-7.470;2023-10-31T03:53:10;44.20;;;7.25;;
64252;SDS011;50592;52.958;-7.470;2023-10-31T03:55:36;58.10;;;9.05;;
64252;SDS011;50592;52.958;-7.470;2023-10-31T03:58:01;63.67;;;7.50;;
64252;SDS011;50592;52.958;-7.470;2023-10-31T04:00:27;40.38;;;7.45;;
64252;SDS011;50592;52.958;-7.470;2023-10-31T04:02:53;72.95;;;8.43;;
64252;SDS011;50592;52.958;-7.470;2023-10-31T04:05:19;69.93;;;7.53;;
64252;SDS011;50592;52.958;-7.470;2023-10-31T04:07:46;137.77;;;9.20;;
64252;SDS011;50592;52.958;-7.470;2023-10-31T04:10:12;136.93;;;8.48;;
64252;SDS011;50592;52.958;-7.470;2023-10-31T04:12:38;72.90;;;7.75;;
64252;SDS011;50592;52.958;-7.470;2023-10-31T04:15:04;89.68;;;7.80;;
64252;SDS011;50592;52.958;-7.470;2023-10-31T04:17:30;109.60;;;9.55;;
64252;SDS011;50592;52.958;-7.470;2023-10-31T04:19:56;116.30;;;9.70;;
64252;SDS011;50592;52.958;-7.470;2023-10-31T04:22:22;64.32;;;7.93;;
64252;SDS011;50592;52.958;-7.470;2023-10-31T04:24:48;74.50;;;8.05;;
64252;SDS011;50592;52.958;-7.470;2023-10-31T04:27:13;82.82;;;7.32;;
64252;SDS011;50592;52.958;-7.470;2023-10-31T04:29:39;71.55;;;6.95;;
64252;SDS011;50592;52.958;-7.470;2023-10-31T04:32:05;72.25;;;6.68;;
64252;SDS011;50592;52.958;-7.470;2023-10-31T04:34:31;31.73;;;6.07;;
64252;SDS011;50592;52.958;-7.470;2023-10-31T04:36:57;111.68;;;9.23;;
64252;SDS011;50592;52.958;-7.470;2023-10-31T04:39:23;131.95;;;7.32;;
64252;SDS011;50592;52.958;-7.470;2023-10-31T04:41:49;131.07;;;7.30;;
64252;SDS011;50592;52.958;-7.470;2023-10-31T04:44:15;17.75;;;5.47;;
64252;SDS011;50592;52.958;-7.470;2023-10-31T04:46:42;72.05;;;6.53;;
64252;SDS011;50592;52.958;-7.470;2023-10-31T04:49:08;179.95;;;8.25;;
64252;SDS011;50592;52.958;-7.470;2023-10-31T04:51:34;45.88;;;6.18;;
64252;SDS011;50592;52.958;-7.470;2023-10-31T04:54:01;24.52;;;6.20;;
64252;SDS011;50592;52.958;-7.470;2023-10-31T04:56:26;29.85;;;6.15;;
64252;SDS011;50592;52.958;-7.470;2023-10-31T04:58:52;18.00;;;6.07;;
64252;SDS011;50592;52.958;-7.470;2023-10-31T05:01:18;57.53;;;7.00;;
64252;SDS011;50592;52.958;-7.470;2023-10-31T05:03:44;87.68;;;7.10;;
64252;SDS011;50592;52.958;-7.470;2023-10-31T05:06:11;23.33;;;6.30;;
64252;SDS011;50592;52.958;-7.470;2023-10-31T05:08:36;25.92;;;6.07;;
64252;SDS011;50592;52.958;-7.470;2023-10-31T05:11:02;56.13;;;7.30;;
64252;SDS011;50592;52.958;-7.470;2023-10-31T05:13:28;53.15;;;7.07;;
64252;SDS011;50592;52.958;-7.470;2023-10-31T05:15:54;112.40;;;8.00;;
64252;SDS011;50592;52.958;-7.470;2023-10-31T05:18:20;118.95;;;6.63;;
64252;SDS011;50592;52.958;-7.470;2023-10-31T05:20:45;49.78;;;5.28;;
64252;SDS011;50592;52.958;-7.470;2023-10-31T05:23:11;82.97;;;6.18;;
64252;SDS011;50592;52.958;-7.470;2023-10-31T05:25:37;53.95;;;5.72;;
64252;SDS011;50592;52.958;-7.470;2023-10-31T05:28:03;42.42;;;5.72;;
64252;SDS011;50592;52.958;-7.470;2023-10-31T05:30:30;48.97;;;5.28;;
64252;SDS011;50592;52.958;-7.470;2023-10-31T05:32:56;26.35;;;4.85;;
64252;SDS011;50592;52.958;-7.470;2023-10-31T05:35:22;13.07;;;5.07;;
64252;SDS011;50592;52.958;-7.470;2023-10-31T05:37:48;14.95;;;4.15;;
64252;SDS011;50592;52.958;-7.470;2023-10-31T05:40:14;9.88;;;3.85;;
64252;SDS011;50592;52.958;-7.470;2023-10-31T05:42:40;4.05;;;3.67;;
64252;SDS011;50592;52.958;-7.470;2023-10-31T05:45:06;8.93;;;3.65;;
64252;SDS011;50592;52.958;-7.470;2023-10-31T05:47:32;5.40;;;3.33;;
64252;SDS011;50592;52.958;-7.470;2023-10-31T05:50:00;3.20;;;2.90;;
64252;SDS011;50592;52.958;-7.470;2023-10-31T05:52:29;3.28;;;2.97;;
64252;SDS011;50592;52.958;-7.470;2023-10-31T05:54:55;3.85;;;3.13;;
64252;SDS011;50592;52.958;-7.470;2023-10-31T05:57:21;3.20;;;2.90;;
64252;SDS011;50592;52.958;-7.470;2023-10-31T05:59:47;5.63;;;3.22;;
64252;SDS011;50592;52.958;-7.470;2023-10-31T06:02:13;5.05;;;4.07;;
64252;SDS011;50592;52.958;-7.470;2023-10-31T06:04:39;8.90;;;4.18;;
64252;SDS011;50592;52.958;-7.470;2023-10-31T06:07:05;4.05;;;3.38;;
64252;SDS011;50592;52.958;-7.470;2023-10-31T06:09:31;60.58;;;4.63;;
64252;SDS011;50592;52.958;-7.470;2023-10-31T06:12:01;69.25;;;4.38;;
64252;SDS011;50592;52.958;-7.470;2023-10-31T06:14:27;69.78;;;4.57;;
64252;SDS011;50592;52.958;-7.470;2023-10-31T06:16:53;38.15;;;3.58;;
64252;SDS011;50592;52.958;-7.470;2023-10-31T06:19:19;76.07;;;4.03;;
64252;SDS011;50592;52.958;-7.470;2023-10-31T06:21:45;66.63;;;4.30;;
64252;SDS011;50592;52.958;-7.470;2023-10-31T06:24:11;86.70;;;4.60;;
64252;SDS011;50592;52.958;-7.470;2023-10-31T06:26:37;59.53;;;4.22;;
64252;SDS011;50592;52.958;-7.470;2023-10-31T06:29:03;38.60;;;3.95;;
64252;SDS011;50592;52.958;-7.470;2023-10-31T06:31:29;81.43;;;3.95;;
64252;SDS011;50592;52.958;-7.470;2023-10-31T06:33:54;35.40;;;4.20;;
64252;SDS011;50592;52.958;-7.470;2023-10-31T06:36:20;18.75;;;3.60;;
64252;SDS011;50592;52.958;-7.470;2023-10-31T06:38:45;75.70;;;4.25;;
64252;SDS011;50592;52.958;-7.470;2023-10-31T06:41:11;60.40;;;4.65;;
64252;SDS011;50592;52.958;-7.470;2023-10-31T06:43:37;32.28;;;3.67;;
64252;SDS011;50592;52.958;-7.470;2023-10-31T06:46:03;38.42;;;3.95;;
64252;SDS011;50592;52.958;-7.470;2023-10-31T06:48:30;83.65;;;4.82;;
64252;SDS011;50592;52.958;-7.470;2023-10-31T06:50:56;70.35;;;4.18;;
64252;SDS011;50592;52.958;-7.470;2023-10-31T06:53:21;106.85;;;4.97;;
64252;SDS011;50592;52.958;-7.470;2023-10-31T06:55:47;27.67;;;3.50;;
64252;SDS011;50592;52.958;-7.470;2023-10-31T06:58:13;38.13;;;4.70;;
64252;SDS011;50592;52.958;-7.470;2023-10-31T07:00:39;55.42;;;3.80;;
64252;SDS011;50592;52.958;-7.470;2023-10-31T07:03:05;68.15;;;3.63;;
64252;SDS011;50592;52.958;-7.470;2023-10-31T07:05:37;169.45;;;5.45;;
64252;SDS011;50592;52.958;-7.470;2023-10-31T07:08:03;78.20;;;3.83;;
64252;SDS011;50592;52.958;-7.470;2023-10-31T07:10:29;31.13;;;3.20;;
64252;SDS011;50592;52.958;-7.470;2023-10-31T07:12:55;62.00;;;3.50;;
64252;SDS011;50592;52.958;-7.470;2023-10-31T07:15:21;63.78;;;3.40;;
64252;SDS011;50592;52.958;-7.470;2023-10-31T07:17:47;22.25;;;2.70;;
64252;SDS011;50592;52.958;-7.470;2023-10-31T07:20:13;22.15;;;2.75;;
64252;SDS011;50592;52.958;-7.470;2023-10-31T07:22:39;26.23;;;3.00;;
64252;SDS011;50592;52.958;-7.470;2023-10-31T07:25:05;9.68;;;2.85;;
64252;SDS011;50592;52.958;-7.470;2023-10-31T07:27:32;15.43;;;2.60;;
64252;SDS011;50592;52.958;-7.470;2023-10-31T07:29:58;8.10;;;2.42;;
64252;SDS011;50592;52.958;-7.470;2023-10-31T07:32:24;32.80;;;3.20;;
64252;SDS011;50592;52.958;-7.470;2023-10-31T07:34:50;34.90;;;3.13;;
64252;SDS011;50592;52.958;-7.470;2023-10-31T07:37:16;30.23;;;3.47;;
64252;SDS011;50592;52.958;-7.470;2023-10-31T07:39:41;18.75;;;2.70;;
64252;SDS011;50592;52.958;-7.470;2023-10-31T07:42:07;18.45;;;2.53;;
64252;SDS011;50592;52.958;-7.470;2023-10-31T07:44:34;7.65;;;2.50;;
64252;SDS011;50592;52.958;-7.470;2023-10-31T07:47:00;5.70;;;2.28;;
64252;SDS011;50592;52.958;-7.470;2023-10-31T07:49:26;4.78;;;2.80;;
64252;SDS011;50592;52.958;-7.470;2023-10-31T07:51:51;3.08;;;2.65;;
64252;SDS011;50592;52.958;-7.470;2023-10-31T07:54:17;2.83;;;2.45;;
64252;SDS011;50592;52.958;-7.470;2023-10-31T07:56:44;3.03;;;2.60;;
64252;SDS011;50592;52.958;-7.470;2023-10-31T07:59:09;4.63;;;2.70;;
64252;SDS011;50592;52.958;-7.470;2023-10-31T08:01:38;2.58;;;2.38;;
64252;SDS011;50592;52.958;-7.470;2023-10-31T08:04:04;2.65;;;2.45;;
64252;SDS011;50592;52.958;-7.470;2023-10-31T08:06:30;3.00;;;2.70;;
64252;SDS011;50592;52.958;-7.470;2023-10-31T08:08:56;2.65;;;2.30;;
64252;SDS011;50592;52.958;-7.470;2023-10-31T08:11:21;4.57;;;2.45;;
64252;SDS011;50592;52.958;-7.470;2023-10-31T08:13:47;2.63;;;2.25;;
64252;SDS011;50592;52.958;-7.470;2023-10-31T08:16:17;3.17;;;2.88;;
64252;SDS011;50592;52.958;-7.470;2023-10-31T08:18:51;2.25;;;1.80;;
64252;SDS011;50592;52.958;-7.470;2023-10-31T08:21:18;4.40;;;2.13;;
64252;SDS011;50592;52.958;-7.470;2023-10-31T08:23:43;4.10;;;1.80;;
64252;SDS011;50592;52.958;-7.470;2023-10-31T08:26:11;2.10;;;1.90;;
64252;SDS011;50592;52.958;-7.470;2023-10-31T08:28:46;8.07;;;1.60;;
64252;SDS011;50592;52.958;-7.470;2023-10-31T08:31:12;2.78;;;1.92;;
64252;SDS011;50592;52.958;-7.470;2023-10-31T08:33:38;2.30;;;1.90;;
64252;SDS011;50592;52.958;-7.470;2023-10-31T08:36:04;2.63;;;1.77;;
64252;SDS011;50592;52.958;-7.470;2023-10-31T08:38:31;2.25;;;2.05;;
64252;SDS011;50592;52.958;-7.470;2023-10-31T08:41:00;2.78;;;2.15;;
64252;SDS011;50592;52.958;-7.470;2023-10-31T08:43:26;2.33;;;2.10;;
64252;SDS011;50592;52.958;-7.470;2023-10-31T08:45:52;2.38;;;2.13;;
64252;SDS011;50592;52.958;-7.470;2023-10-31T08:48:17;2.30;;;2.10;;
64252;SDS011;50592;52.958;-7.470;2023-10-31T08:50:43;2.65;;;1.80;;
64252;SDS011;50592;52.958;-7.470;2023-10-31T08:53:09;2.50;;;2.00;;
64252;SDS011;50592;52.958;-7.470;2023-10-31T08:55:35;3.25;;;1.63;;
64252;SDS011;50592;52.958;-7.470;2023-10-31T08:58:01;2.22;;;1.90;;
64252;SDS011;50592;52.958;-7.470;2023-10-31T09:00:26;1.85;;;1.75;;
64252;SDS011;50592;52.958;-7.470;2023-10-31T09:02:53;2.75;;;1.88;;
64252;SDS011;50592;52.958;-7.470;2023-10-31T09:05:19;1.90;;;1.60;;
64252;SDS011;50592;52.958;-7.470;2023-10-31T09:07:45;1.98;;;1.77;;
64252;SDS011;50592;52.958;-7.470;2023-10-31T09:10:11;2.17;;;1.70;;
64252;SDS011;50592;52.958;-7.470;2023-10-31T09:12:38;2.88;;;1.83;;
64252;SDS011;50592;52.958;-7.470;2023-10-31T09:15:03;2.92;;;2.00;;
64252;SDS011;50592;52.958;-7.470;2023-10-31T09:17:30;3.35;;;1.63;;
64252;SDS011;50592;52.958;-7.470;2023-10-31T09:19:56;2.67;;;2.10;;
64252;SDS011;50592;52.958;-7.470;2023-10-31T09:22:21;2.83;;;2.00;;
64252;SDS011;50592;52.958;-7.470;2023-10-31T09:24:47;2.42;;;2.05;;
64252;SDS011;50592;52.958;-7.470;2023-10-31T09:27:13;2.88;;;2.00;;
64252;SDS011;50592;52.958;-7.470;2023-10-31T09:29:38;3.28;;;2.33;;
64252;SDS011;50592;52.958;-7.470;2023-10-31T09:32:04;3.38;;;2.22;;
64252;SDS011;50592;52.958;-7.470;2023-10-31T09:34:31;2.22;;;2.03;;
64252;SDS011;50592;52.958;-7.470;2023-10-31T09:36:57;3.45;;;2.20;;
64252;SDS011;50592;52.958;-7.470;2023-10-31T09:39:23;5.45;;;2.17;;
64252;SDS011;50592;52.958;-7.470;2023-10-31T09:41:49;2.92;;;1.58;;
64252;SDS011;50592;52.958;-7.470;2023-10-31T09:44:15;3.55;;;2.10;;
64252;SDS011;50592;52.958;-7.470;2023-10-31T09:46:41;4.45;;;2.05;;
64252;SDS011;50592;52.958;-7.470;2023-10-31T09:49:07;3.03;;;2.08;;
64252;SDS011;50592;52.958;-7.470;2023-10-31T09:51:33;2.50;;;1.98;;
64252;SDS011;50592;52.958;-7.470;2023-10-31T09:53:59;3.67;;;2.15;;
64252;SDS011;50592;52.958;-7.470;2023-10-31T09:56:28;4.57;;;2.10;;
64252;SDS011;50592;52.958;-7.470;2023-10-31T09:59:00;4.15;;;2.08;;
64252;SDS011;50592;52.958;-7.470;2023-10-31T10:01:26;6.57;;;1.80;;
64252;SDS011;50592;52.958;-7.470;2023-10-31T10:03:52;2.75;;;2.03;;
64252;SDS011;50592;52.958;-7.470;2023-10-31T10:06:19;5.78;;;2.10;;
64252;SDS011;50592;52.958;-7.470;2023-10-31T10:08:46;3.80;;;2.10;;
64252;SDS011;50592;52.958;-7.470;2023-10-31T10:11:12;3.45;;;2.33;;
64252;SDS011;50592;52.958;-7.470;2023-10-31T10:13:38;7.65;;;2.10;;
64252;SDS011;50592;52.958;-7.470;2023-10-31T10:16:03;3.28;;;1.90;;
64252;SDS011;50592;52.958;-7.470;2023-10-31T10:18:32;2.53;;;1.70;;
64252;SDS011;50592;52.958;-7.470;2023-10-31T10:21:04;2.83;;;1.80;;
64252;SDS011;50592;52.958;-7.470;2023-10-31T10:23:31;1.88;;;1.70;;
64252;SDS011;50592;52.958;-7.470;2023-10-31T10:25:58;2.92;;;1.77;;
64252;SDS011;50592;52.958;-7.470;2023-10-31T10:28:25;2.28;;;2.08;;
64252;SDS011;50592;52.958;-7.470;2023-10-31T10:30:55;2.25;;;2.05;;
64252;SDS011;50592;52.958;-7.470;2023-10-31T10:33:21;3.47;;;1.73;;
64252;SDS011;50592;52.958;-7.470;2023-10-31T10:35:47;2.67;;;2.00;;
64252;SDS011;50592;52.958;-7.470;2023-10-31T10:38:14;2.25;;;1.98;;
64252;SDS011;50592;52.958;-7.470;2023-10-31T10:40:47;3.97;;;1.90;;
64252;SDS011;50592;52.958;-7.470;2023-10-31T10:43:22;5.13;;;2.03;;
64252;SDS011;50592;52.958;-7.470;2023-10-31T10:45:52;5.40;;;2.10;;
64252;SDS011;50592;52.958;-7.470;2023-10-31T10:48:23;2.20;;;1.70;;
64252;SDS011;50592;52.958;-7.470;2023-10-31T10:51:04;2.05;;;1.63;;
64252;SDS011;50592;52.958;-7.470;2023-10-31T10:53:35;3.53;;;2.00;;
64252;SDS011;50592;52.958;-7.470;2023-10-31T10:56:13;3.08;;;1.40;;
64252;SDS011;50592;52.958;-7.470;2023-10-31T10:59:42;3.25;;;2.30;;
64252;SDS011;50592;52.958;-7.470;2023-10-31T11:01:55;1.98;;;1.55;;
64252;SDS011;50592;52.958;-7.470;2023-10-31T11:04:23;2.88;;;1.60;;
64252;SDS011;50592;52.958;-7.470;2023-10-31T11:06:50;4.43;;;1.58;;
64252;SDS011;50592;52.958;-7.470;2023-10-31T11:09:16;2.95;;;1.55;;
64252;SDS011;50592;52.958;-7.470;2023-10-31T11:11:42;2.95;;;1.27;;
64252;SDS011;50592;52.958;-7.470;2023-10-31T11:14:14;3.22;;;1.50;;
64252;SDS011;50592;52.958;-7.470;2023-10-31T11:16:49;2.78;;;1.75;;
64252;SDS011;50592;52.958;-7.470;2023-10-31T11:22:00;4.15;;;1.90;;
64252;SDS011;50592;52.958;-7.470;2023-10-31T11:24:28;3.72;;;1.90;;
64252;SDS011;50592;52.958;-7.470;2023-10-31T11:27:00;5.50;;;3.30;;
64252;SDS011;50592;52.958;-7.470;2023-10-31T11:29:27;4.00;;;3.05;;
64252;SDS011;50592;52.958;-7.470;2023-10-31T11:31:56;3.25;;;2.92;;
64252;SDS011;50592;52.958;-7.470;2023-10-31T11:34:22;4.22;;;3.70;;
64252;SDS011;50592;52.958;-7.470;2023-10-31T11:37:17;8.13;;;6.55;;
64252;SDS011;50592;52.958;-7.470;2023-10-31T11:42:52;16.17;;;11.25;;
64252;SDS011;50592;52.958;-7.470;2023-10-31T11:47:51;7.72;;;6.93;;
64252;SDS011;50592;52.958;-7.470;2023-10-31T11:50:17;9.10;;;5.85;;
64252;SDS011;50592;52.958;-7.470;2023-10-31T11:52:43;7.07;;;5.50;;
64252;SDS011;50592;52.958;-7.470;2023-10-31T11:55:09;35.20;;;24.88;;
64252;SDS011;50592;52.958;-7.470;2023-10-31T11:57:36;6.60;;;4.78;;
64252;SDS011;50592;52.958;-7.470;2023-10-31T12:00:03;8.35;;;6.20;;
64252;SDS011;50592;52.958;-7.470;2023-10-31T12:02:38;4.80;;;4.30;;
64252;SDS011;50592;52.958;-7.470;2023-10-31T12:05:10;5.78;;;4.45;;
64252;SDS011;50592;52.958;-7.470;2023-10-31T12:07:44;4.75;;;4.20;;
64252;SDS011;50592;52.958;-7.470;2023-10-31T12:10:10;7.03;;;4.28;;
64252;SDS011;50592;52.958;-7.470;2023-10-31T12:12:36;6.10;;;4.00;;
64252;SDS011;50592;52.958;-7.470;2023-10-31T12:15:06;4.93;;;3.58;;
64252;SDS011;50592;52.958;-7.470;2023-10-31T12:17:35;5.55;;;3.53;;
64252;SDS011;50592;52.958;-7.470;2023-10-31T12:20:04;5.43;;;3.40;;
64252;SDS011;50592;52.958;-7.470;2023-10-31T12:22:33;8.75;;;4.03;;
64252;SDS011;50592;52.958;-7.470;2023-10-31T12:25:05;6.22;;;3.58;;
64252;SDS011;50592;52.958;-7.470;2023-10-31T12:27:45;5.60;;;3.30;;
64252;SDS011;50592;52.958;-7.470;2023-10-31T12:30:14;5.43;;;3.35;;
64252;SDS011;50592;52.958;-7.470;2023-10-31T12:32:41;4.63;;;3.25;;
64252;SDS011;50592;52.958;-7.470;2023-10-31T12:35:11;3.50;;;2.70;;
64252;SDS011;50592;52.958;-7.470;2023-10-31T12:37:45;7.43;;;2.72;;
64252;SDS011;50592;52.958;-7.470;2023-10-31T12:40:14;3.33;;;2.33;;
64252;SDS011;50592;52.958;-7.470;2023-10-31T12:42:43;3.95;;;2.47;;
64252;SDS011;50592;52.958;-7.470;2023-10-31T12:45:09;3.28;;;2.22;;
64252;SDS011;50592;52.958;-7.470;2023-10-31T12:47:37;3.72;;;2.70;;
64252;SDS011;50592;52.958;-7.470;2023-10-31T12:52:48;5.00;;;2.40;;
64252;SDS011;50592;52.958;-7.470;2023-10-31T12:55:14;3.33;;;3.03;;
64252;SDS011;50592;52.958;-7.470;2023-10-31T12:57:41;5.10;;;2.95;;
64252;SDS011;50592;52.958;-7.470;2023-10-31T13:00:07;4.47;;;3.20;;
64252;SDS011;50592;52.958;-7.470;2023-10-31T13:02:36;4.95;;;3.00;;
64252;SDS011;50592;52.958;-7.470;2023-10-31T13:07:38;4.20;;;2.80;;
64252;SDS011;50592;52.958;-7.470;2023-10-31T13:10:05;6.05;;;2.95;;
64252;SDS011;50592;52.958;-7.470;2023-10-31T13:12:32;5.93;;;2.83;;
64252;SDS011;50592;52.958;-7.470;2023-10-31T13:14:58;7.53;;;3.50;;
64252;SDS011;50592;52.958;-7.470;2023-10-31T13:17:24;5.60;;;2.72;;
64252;SDS011;50592;52.958;-7.470;2023-10-31T13:19:50;7.75;;;3.00;;
64252;SDS011;50592;52.958;-7.470;2023-10-31T13:22:15;2.97;;;2.03;;
64252;SDS011;50592;52.958;-7.470;2023-10-31T13:24:41;4.13;;;2.05;;
64252;SDS011;50592;52.958;-7.470;2023-10-31T13:27:08;5.45;;;2.20;;
64252;SDS011;50592;52.958;-7.470;2023-10-31T13:29:33;3.33;;;1.67;;
64252;SDS011;50592;52.958;-7.470;2023-10-31T13:31:59;2.80;;;1.30;;
64252;SDS011;50592;52.958;-7.470;2023-10-31T13:34:25;5.28;;;1.73;;
64252;SDS011;50592;52.958;-7.470;2023-10-31T13:36:50;3.80;;;1.48;;
64252;SDS011;50592;52.958;-7.470;2023-10-31T13:39:17;4.40;;;1.13;;
64252;SDS011;50592;52.958;-7.470;2023-10-31T13:41:43;3.25;;;1.10;;
64252;SDS011;50592;52.958;-7.470;2023-10-31T13:44:09;5.45;;;1.30;;
64252;SDS011;50592;52.958;-7.470;2023-10-31T13:46:34;4.38;;;0.80;;
64252;SDS011;50592;52.958;-7.470;2023-10-31T13:49:00;5.03;;;1.17;;
64252;SDS011;50592;52.958;-7.470;2023-10-31T13:51:26;2.50;;;0.82;;
64252;SDS011;50592;52.958;-7.470;2023-10-31T13:53:51;1.63;;;0.77;;
64252;SDS011;50592;52.958;-7.470;2023-10-31T13:56:17;4.22;;;0.77;;
64252;SDS011;50592;52.958;-7.470;2023-10-31T13:58:43;3.40;;;0.63;;
64252;SDS011;50592;52.958;-7.470;2023-10-31T14:01:09;6.20;;;0.77;;
64252;SDS011;50592;52.958;-7.470;2023-10-31T14:03:34;2.90;;;0.85;;
64252;SDS011;50592;52.958;-7.470;2023-10-31T14:06:01;4.75;;;0.70;;
64252;SDS011;50592;52.958;-7.470;2023-10-31T14:08:26;2.78;;;0.85;;
64252;SDS011;50592;52.958;-7.470;2023-10-31T14:10:52;3.70;;;0.70;;
64252;SDS011;50592;52.958;-7.470;2023-10-31T14:13:20;3.33;;;0.68;;
64252;SDS011;50592;52.958;-7.470;2023-10-31T14:15:46;1.48;;;0.50;;
64252;SDS011;50592;52.958;-7.470;2023-10-31T14:18:11;1.67;;;0.40;;
64252;SDS011;50592;52.958;-7.470;2023-10-31T14:20:38;4.22;;;0.63;;
64252;SDS011;50592;52.958;-7.470;2023-10-31T14:23:05;2.95;;;0.68;;
64252;SDS011;50592;52.958;-7.470;2023-10-31T14:25:31;1.13;;;0.40;;
64252;SDS011;50592;52.958;-7.470;2023-10-31T14:27:57;3.05;;;0.70;;
64252;SDS011;50592;52.958;-7.470;2023-10-31T14:30:22;3.45;;;0.50;;
64252;SDS011;50592;52.958;-7.470;2023-10-31T14:32:48;3.10;;;0.80;;
64252;SDS011;50592;52.958;-7.470;2023-10-31T14:35:14;3.30;;;0.60;;